sensor_id;sensor_type;location;lat;lon;timestamp;P1;durP1;ratioP1;P2;durP2;ratioP2
15555;SDS011;7879;48.660;9.116;2023-02-21T00:00:34;0.30;;;0.30;;
15555;SDS011;7879;48.660;9.116;2023-02-21T00:03:19;0.30;;;0.30;;
15555;SDS011;7879;48.660;9.116;2023-02-21T00:06:08;0.30;;;0.30;;
15555;SDS011;7879;48.660;9.116;2023-02-21T00:08:53;0.30;;;0.30;;
15555;SDS011;7879;48.660;9.116;2023-02-21T00:11:42;0.30;;;0.30;;
15555;SDS011;7879;48.660;9.116;2023-02-21T00:14:27;0.25;;;0.25;;
15555;SDS011;7879;48.660;9.116;2023-02-21T00:17:13;0.30;;;0.30;;
15555;SDS011;7879;48.660;9.116;2023-02-21T00:19:58;0.30;;;0.30;;
15555;SDS011;7879;48.660;9.116;2023-02-21T00:22:44;0.30;;;0.30;;
15555;SDS011;7879;48.660;9.116;2023-02-21T00:25:29;0.40;;;0.40;;
15555;SDS011;7879;48.660;9.116;2023-02-21T00:28:15;0.40;;;0.40;;
15555;SDS011;7879;48.660;9.116;2023-02-21T00:31:00;0.40;;;0.40;;
15555;SDS011;7879;48.660;9.116;2023-02-21T00:33:46;0.40;;;0.40;;
15555;SDS011;7879;48.660;9.116;2023-02-21T00:36:32;0.40;;;0.40;;
15555;SDS011;7879;48.660;9.116;2023-02-21T00:39:18;0.40;;;0.40;;
15555;SDS011;7879;48.660;9.116;2023-02-21T00:42:03;0.40;;;0.40;;
15555;SDS011;7879;48.660;9.116;2023-02-21T00:44:48;0.40;;;0.40;;
15555;SDS011;7879;48.660;9.116;2023-02-21T00:47:34;0.40;;;0.40;;
15555;SDS011;7879;48.660;9.116;2023-02-21T00:50:19;0.30;;;0.30;;
15555;SDS011;7879;48.660;9.116;2023-02-21T00:53:05;0.40;;;0.40;;
15555;SDS011;7879;48.660;9.116;2023-02-21T00:55:50;0.30;;;0.30;;
15555;SDS011;7879;48.660;9.116;2023-02-21T00:58:36;0.30;;;0.30;;
15555;SDS011;7879;48.660;9.116;2023-02-21T01:01:21;0.30;;;0.30;;
15555;SDS011;7879;48.660;9.116;2023-02-21T01:04:07;0.30;;;0.30;;
15555;SDS011;7879;48.660;9.116;2023-02-21T01:06:52;0.30;;;0.30;;
15555;SDS011;7879;48.660;9.116;2023-02-21T01:09:38;0.30;;;0.30;;
15555;SDS011;7879;48.660;9.116;2023-02-21T01:12:23;0.30;;;0.30;;
15555;SDS011;7879;48.660;9.116;2023-02-21T01:15:08;0.30;;;0.30;;
15555;SDS011;7879;48.660;9.116;2023-02-21T01:18:09;0.30;;;0.30;;
15555;SDS011;7879;48.660;9.116;2023-02-21T01:20:55;0.30;;;0.30;;
15555;SDS011;7879;48.660;9.116;2023-02-21T01:23:40;0.30;;;0.30;;
15555;SDS011;7879;48.660;9.116;2023-02-21T01:26:25;0.30;;;0.30;;
15555;SDS011;7879;48.660;9.116;2023-02-21T01:29:11;0.30;;;0.30;;
15555;SDS011;7879;48.660;9.116;2023-02-21T01:31:57;0.30;;;0.30;;
15555;SDS011;7879;48.660;9.116;2023-02-21T01:34:42;0.30;;;0.30;;
15555;SDS011;7879;48.660;9.116;2023-02-21T01:37:28;0.30;;;0.30;;
15555;SDS011;7879;48.660;9.116;2023-02-21T01:40:14;0.30;;;0.30;;
15555;SDS011;7879;48.660;9.116;2023-02-21T01:42:59;0.40;;;0.40;;
15555;SDS011;7879;48.660;9.116;2023-02-21T01:45:49;0.40;;;0.40;;
15555;SDS011;7879;48.660;9.116;2023-02-21T01:48:35;0.40;;;0.40;;
15555;SDS011;7879;48.660;9.116;2023-02-21T01:51:22;0.40;;;0.40;;
15555;SDS011;7879;48.660;9.116;2023-02-21T01:54:11;0.40;;;0.40;;
15555;SDS011;7879;48.660;9.116;2023-02-21T01:56:58;0.40;;;0.40;;
15555;SDS011;7879;48.660;9.116;2023-02-21T01:59:46;0.40;;;0.40;;
15555;SDS011;7879;48.660;9.116;2023-02-21T02:05:42;0.40;;;0.40;;
15555;SDS011;7879;48.660;9.116;2023-02-21T02:08:30;0.40;;;0.40;;
15555;SDS011;7879;48.660;9.116;2023-02-21T02:11:23;0.40;;;0.40;;
15555;SDS011;7879;48.660;9.116;2023-02-21T02:17:10;0.40;;;0.40;;
15555;SDS011;7879;48.660;9.116;2023-02-21T02:23:14;0.30;;;0.30;;
15555;SDS011;7879;48.660;9.116;2023-02-21T02:35:16;0.30;;;0.30;;
15555;SDS011;7879;48.660;9.116;2023-02-21T02:40:30;0.32;;;0.32;;
15555;SDS011;7879;48.660;9.116;2023-02-21T02:43:37;0.40;;;0.40;;
15555;SDS011;7879;48.660;9.116;2023-02-21T02:46:18;0.40;;;0.40;;
15555;SDS011;7879;48.660;9.116;2023-02-21T02:51:26;0.30;;;0.30;;
15555;SDS011;7879;48.660;9.116;2023-02-21T02:53:54;0.30;;;0.30;;
15555;SDS011;7879;48.660;9.116;2023-02-21T02:56:20;0.30;;;0.30;;
15555;SDS011;7879;48.660;9.116;2023-02-21T02:59:10;0.30;;;0.30;;
15555;SDS011;7879;48.660;9.116;2023-02-21T03:01:41;0.30;;;0.30;;
15555;SDS011;7879;48.660;9.116;2023-02-21T03:06:44;0.40;;;0.40;;
15555;SDS011;7879;48.660;9.116;2023-02-21T03:14:59;0.30;;;0.30;;
15555;SDS011;7879;48.660;9.116;2023-02-21T03:17:32;0.40;;;0.40;;
15555;SDS011;7879;48.660;9.116;2023-02-21T03:20:05;0.40;;;0.40;;
15555;SDS011;7879;48.660;9.116;2023-02-21T03:22:34;0.40;;;0.40;;
15555;SDS011;7879;48.660;9.116;2023-02-21T03:25:02;0.40;;;0.40;;
15555;SDS011;7879;48.660;9.116;2023-02-21T03:27:30;0.30;;;0.30;;
15555;SDS011;7879;48.660;9.116;2023-02-21T03:30:00;0.30;;;0.30;;
15555;SDS011;7879;48.660;9.116;2023-02-21T03:32:35;0.40;;;0.40;;
15555;SDS011;7879;48.660;9.116;2023-02-21T03:35:05;0.30;;;0.30;;
15555;SDS011;7879;48.660;9.116;2023-02-21T03:37:34;0.30;;;0.30;;
15555;SDS011;7879;48.660;9.116;2023-02-21T03:40:05;0.30;;;0.30;;
15555;SDS011;7879;48.660;9.116;2023-02-21T03:42:56;0.30;;;0.30;;
15555;SDS011;7879;48.660;9.116;2023-02-21T03:45:26;0.30;;;0.30;;
15555;SDS011;7879;48.660;9.116;2023-02-21T03:47:53;0.30;;;0.30;;
15555;SDS011;7879;48.660;9.116;2023-02-21T03:50:20;0.40;;;0.40;;
15555;SDS011;7879;48.660;9.116;2023-02-21T03:52:46;0.40;;;0.40;;
15555;SDS011;7879;48.660;9.116;2023-02-21T03:55:13;0.40;;;0.40;;
15555;SDS011;7879;48.660;9.116;2023-02-21T03:57:40;0.40;;;0.40;;
15555;SDS011;7879;48.660;9.116;2023-02-21T04:00:07;0.30;;;0.30;;
15555;SDS011;7879;48.660;9.116;2023-02-21T04:02:35;0.40;;;0.40;;
15555;SDS011;7879;48.660;9.116;2023-02-21T04:05:02;0.40;;;0.40;;
15555;SDS011;7879;48.660;9.116;2023-02-21T04:07:29;0.30;;;0.30;;
15555;SDS011;7879;48.660;9.116;2023-02-21T04:09:56;0.30;;;0.30;;
15555;SDS011;7879;48.660;9.116;2023-02-21T04:12:23;0.30;;;0.30;;
15555;SDS011;7879;48.660;9.116;2023-02-21T04:14:50;0.30;;;0.30;;
15555;SDS011;7879;48.660;9.116;2023-02-21T04:17:17;0.30;;;0.30;;
15555;SDS011;7879;48.660;9.116;2023-02-21T04:19:44;0.40;;;0.40;;
15555;SDS011;7879;48.660;9.116;2023-02-21T04:22:11;0.40;;;0.40;;
15555;SDS011;7879;48.660;9.116;2023-02-21T04:24:38;0.40;;;0.40;;
15555;SDS011;7879;48.660;9.116;2023-02-21T04:27:05;0.40;;;0.40;;
15555;SDS011;7879;48.660;9.116;2023-02-21T04:29:32;0.30;;;0.30;;
15555;SDS011;7879;48.660;9.116;2023-02-21T04:31:59;0.30;;;0.30;;
15555;SDS011;7879;48.660;9.116;2023-02-21T04:34:26;0.30;;;0.30;;
15555;SDS011;7879;48.660;9.116;2023-02-21T04:36:52;0.30;;;0.30;;
15555;SDS011;7879;48.660;9.116;2023-02-21T04:39:19;0.40;;;0.40;;
15555;SDS011;7879;48.660;9.116;2023-02-21T04:41:46;0.40;;;0.40;;
15555;SDS011;7879;48.660;9.116;2023-02-21T04:44:13;0.40;;;0.40;;
15555;SDS011;7879;48.660;9.116;2023-02-21T04:46:40;0.40;;;0.40;;
15555;SDS011;7879;48.660;9.116;2023-02-21T04:49:06;0.40;;;0.40;;
15555;SDS011;7879;48.660;9.116;2023-02-21T04:51:33;0.30;;;0.30;;
15555;SDS011;7879;48.660;9.116;2023-02-21T04:54:00;0.30;;;0.30;;
15555;SDS011;7879;48.660;9.116;2023-02-21T04:56:27;0.30;;;0.30;;
15555;SDS011;7879;48.660;9.116;2023-02-21T04:58:54;0.40;;;0.40;;
15555;SDS011;7879;48.660;9.116;2023-02-21T05:01:22;0.40;;;0.40;;
15555;SDS011;7879;48.660;9.116;2023-02-21T05:03:51;0.40;;;0.40;;
15555;SDS011;7879;48.660;9.116;2023-02-21T05:06:19;0.40;;;0.40;;
15555;SDS011;7879;48.660;9.116;2023-02-21T05:08:47;0.40;;;0.40;;
15555;SDS011;7879;48.660;9.116;2023-02-21T05:11:14;0.38;;;0.38;;
15555;SDS011;7879;48.660;9.116;2023-02-21T05:13:42;0.30;;;0.30;;
15555;SDS011;7879;48.660;9.116;2023-02-21T05:16:08;0.30;;;0.30;;
15555;SDS011;7879;48.660;9.116;2023-02-21T05:18:35;0.30;;;0.30;;
15555;SDS011;7879;48.660;9.116;2023-02-21T05:21:06;0.40;;;0.40;;
15555;SDS011;7879;48.660;9.116;2023-02-21T05:23:33;0.40;;;0.40;;
15555;SDS011;7879;48.660;9.116;2023-02-21T05:28:32;0.40;;;0.40;;
15555;SDS011;7879;48.660;9.116;2023-02-21T05:30:59;0.40;;;0.40;;
15555;SDS011;7879;48.660;9.116;2023-02-21T05:33:26;0.30;;;0.30;;
15555;SDS011;7879;48.660;9.116;2023-02-21T05:35:53;0.30;;;0.30;;
15555;SDS011;7879;48.660;9.116;2023-02-21T05:38:21;0.30;;;0.30;;
15555;SDS011;7879;48.660;9.116;2023-02-21T05:40:49;0.40;;;0.40;;
15555;SDS011;7879;48.660;9.116;2023-02-21T05:43:16;0.40;;;0.40;;
15555;SDS011;7879;48.660;9.116;2023-02-21T05:45:43;0.40;;;0.40;;
15555;SDS011;7879;48.660;9.116;2023-02-21T05:48:10;0.40;;;0.40;;
15555;SDS011;7879;48.660;9.116;2023-02-21T05:50:37;0.30;;;0.30;;
15555;SDS011;7879;48.660;9.116;2023-02-21T05:53:04;0.30;;;0.30;;
15555;SDS011;7879;48.660;9.116;2023-02-21T05:55:31;0.30;;;0.30;;
15555;SDS011;7879;48.660;9.116;2023-02-21T05:57:59;0.30;;;0.30;;
15555;SDS011;7879;48.660;9.116;2023-02-21T06:00:26;0.30;;;0.30;;
15555;SDS011;7879;48.660;9.116;2023-02-21T06:02:54;0.40;;;0.40;;
15555;SDS011;7879;48.660;9.116;2023-02-21T06:05:22;0.40;;;0.40;;
15555;SDS011;7879;48.660;9.116;2023-02-21T06:07:49;0.40;;;0.40;;
15555;SDS011;7879;48.660;9.116;2023-02-21T06:10:15;0.40;;;0.40;;
15555;SDS011;7879;48.660;9.116;2023-02-21T06:12:43;0.30;;;0.30;;
15555;SDS011;7879;48.660;9.116;2023-02-21T06:15:09;0.30;;;0.30;;
15555;SDS011;7879;48.660;9.116;2023-02-21T06:17:38;0.30;;;0.30;;
15555;SDS011;7879;48.660;9.116;2023-02-21T06:20:06;0.40;;;0.40;;
15555;SDS011;7879;48.660;9.116;2023-02-21T06:22:35;0.40;;;0.40;;
15555;SDS011;7879;48.660;9.116;2023-02-21T06:27:59;0.40;;;0.40;;
15555;SDS011;7879;48.660;9.116;2023-02-21T06:30:26;0.30;;;0.30;;
15555;SDS011;7879;48.660;9.116;2023-02-21T06:32:53;0.30;;;0.30;;
15555;SDS011;7879;48.660;9.116;2023-02-21T06:35:20;0.30;;;0.30;;
15555;SDS011;7879;48.660;9.116;2023-02-21T06:40:14;0.40;;;0.40;;
15555;SDS011;7879;48.660;9.116;2023-02-21T06:42:41;0.40;;;0.40;;
15555;SDS011;7879;48.660;9.116;2023-02-21T06:45:08;0.40;;;0.40;;
15555;SDS011;7879;48.660;9.116;2023-02-21T06:47:35;0.30;;;0.30;;
15555;SDS011;7879;48.660;9.116;2023-02-21T06:50:01;0.30;;;0.30;;
15555;SDS011;7879;48.660;9.116;2023-02-21T06:52:29;0.30;;;0.30;;
15555;SDS011;7879;48.660;9.116;2023-02-21T06:54:56;0.30;;;0.30;;
15555;SDS011;7879;48.660;9.116;2023-02-21T06:57:23;0.40;;;0.40;;
15555;SDS011;7879;48.660;9.116;2023-02-21T06:59:50;0.40;;;0.40;;
15555;SDS011;7879;48.660;9.116;2023-02-21T07:02:18;0.40;;;0.40;;
15555;SDS011;7879;48.660;9.116;2023-02-21T07:04:46;0.30;;;0.30;;
15555;SDS011;7879;48.660;9.116;2023-02-21T07:07:13;0.30;;;0.30;;
15555;SDS011;7879;48.660;9.116;2023-02-21T07:09:40;0.30;;;0.30;;
15555;SDS011;7879;48.660;9.116;2023-02-21T07:12:07;0.30;;;0.30;;
15555;SDS011;7879;48.660;9.116;2023-02-21T07:14:34;0.30;;;0.30;;
15555;SDS011;7879;48.660;9.116;2023-02-21T07:17:01;0.30;;;0.30;;
15555;SDS011;7879;48.660;9.116;2023-02-21T07:19:27;0.40;;;0.40;;
15555;SDS011;7879;48.660;9.116;2023-02-21T07:21:54;0.40;;;0.40;;
15555;SDS011;7879;48.660;9.116;2023-02-21T07:24:21;0.40;;;0.40;;
15555;SDS011;7879;48.660;9.116;2023-02-21T07:26:48;0.40;;;0.40;;
15555;SDS011;7879;48.660;9.116;2023-02-21T07:29:15;0.40;;;0.40;;
15555;SDS011;7879;48.660;9.116;2023-02-21T07:31:42;0.30;;;0.30;;
15555;SDS011;7879;48.660;9.116;2023-02-21T07:34:09;0.30;;;0.30;;
15555;SDS011;7879;48.660;9.116;2023-02-21T07:36:37;0.30;;;0.30;;
15555;SDS011;7879;48.660;9.116;2023-02-21T07:39:05;0.30;;;0.30;;
15555;SDS011;7879;48.660;9.116;2023-02-21T07:41:32;0.30;;;0.30;;
15555;SDS011;7879;48.660;9.116;2023-02-21T07:43:59;0.30;;;0.30;;
15555;SDS011;7879;48.660;9.116;2023-02-21T07:46:26;0.30;;;0.30;;
15555;SDS011;7879;48.660;9.116;2023-02-21T07:48:54;0.30;;;0.30;;
15555;SDS011;7879;48.660;9.116;2023-02-21T07:51:21;0.28;;;0.28;;
15555;SDS011;7879;48.660;9.116;2023-02-21T07:53:48;0.28;;;0.28;;
15555;SDS011;7879;48.660;9.116;2023-02-21T07:56:15;0.30;;;0.30;;
15555;SDS011;7879;48.660;9.116;2023-02-21T07:58:42;0.30;;;0.30;;
15555;SDS011;7879;48.660;9.116;2023-02-21T08:01:09;0.20;;;0.20;;
15555;SDS011;7879;48.660;9.116;2023-02-21T08:03:37;0.20;;;0.20;;
15555;SDS011;7879;48.660;9.116;2023-02-21T08:06:04;0.20;;;0.20;;
15555;SDS011;7879;48.660;9.116;2023-02-21T08:08:32;0.20;;;0.20;;
15555;SDS011;7879;48.660;9.116;2023-02-21T08:11:00;0.30;;;0.30;;
15555;SDS011;7879;48.660;9.116;2023-02-21T08:13:27;0.30;;;0.30;;
15555;SDS011;7879;48.660;9.116;2023-02-21T08:15:54;0.30;;;0.30;;
15555;SDS011;7879;48.660;9.116;2023-02-21T08:18:22;0.30;;;0.30;;
15555;SDS011;7879;48.660;9.116;2023-02-21T08:20:50;0.30;;;0.30;;
15555;SDS011;7879;48.660;9.116;2023-02-21T08:23:18;0.20;;;0.20;;
15555;SDS011;7879;48.660;9.116;2023-02-21T08:25:45;0.20;;;0.20;;
15555;SDS011;7879;48.660;9.116;2023-02-21T08:28:13;0.30;;;0.30;;
15555;SDS011;7879;48.660;9.116;2023-02-21T08:30:39;0.30;;;0.30;;
15555;SDS011;7879;48.660;9.116;2023-02-21T08:33:06;0.20;;;0.20;;
15555;SDS011;7879;48.660;9.116;2023-02-21T08:35:33;0.20;;;0.20;;
15555;SDS011;7879;48.660;9.116;2023-02-21T08:38:00;0.30;;;0.30;;
15555;SDS011;7879;48.660;9.116;2023-02-21T08:40:31;0.20;;;0.20;;
15555;SDS011;7879;48.660;9.116;2023-02-21T08:42:58;0.15;;;0.15;;
15555;SDS011;7879;48.660;9.116;2023-02-21T08:45:26;0.30;;;0.30;;
15555;SDS011;7879;48.660;9.116;2023-02-21T08:47:54;0.20;;;0.20;;
15555;SDS011;7879;48.660;9.116;2023-02-21T08:50:22;0.20;;;0.20;;
15555;SDS011;7879;48.660;9.116;2023-02-21T08:52:50;0.20;;;0.20;;
15555;SDS011;7879;48.660;9.116;2023-02-21T08:55:17;0.10;;;0.10;;
15555;SDS011;7879;48.660;9.116;2023-02-21T08:57:48;0.20;;;0.20;;
15555;SDS011;7879;48.660;9.116;2023-02-21T09:00:16;0.10;;;0.10;;
15555;SDS011;7879;48.660;9.116;2023-02-21T09:02:49;0.20;;;0.20;;
15555;SDS011;7879;48.660;9.116;2023-02-21T09:05:18;0.20;;;0.20;;
15555;SDS011;7879;48.660;9.116;2023-02-21T09:07:49;0.10;;;0.10;;
15555;SDS011;7879;48.660;9.116;2023-02-21T09:10:17;0.10;;;0.10;;
15555;SDS011;7879;48.660;9.116;2023-02-21T09:12:44;0.17;;;0.17;;
15555;SDS011;7879;48.660;9.116;2023-02-21T09:15:13;0.20;;;0.20;;
15555;SDS011;7879;48.660;9.116;2023-02-21T09:17:40;0.10;;;0.10;;
15555;SDS011;7879;48.660;9.116;2023-02-21T09:20:08;0.10;;;0.10;;
15555;SDS011;7879;48.660;9.116;2023-02-21T09:22:36;0.10;;;0.10;;
15555;SDS011;7879;48.660;9.116;2023-02-21T09:25:04;0.20;;;0.20;;
15555;SDS011;7879;48.660;9.116;2023-02-21T09:27:32;0.20;;;0.20;;
15555;SDS011;7879;48.660;9.116;2023-02-21T09:30:03;0.20;;;0.20;;
15555;SDS011;7879;48.660;9.116;2023-02-21T09:32:35;0.10;;;0.10;;
15555;SDS011;7879;48.660;9.116;2023-02-21T09:35:02;0.10;;;0.10;;
15555;SDS011;7879;48.660;9.116;2023-02-21T09:37:30;0.10;;;0.10;;
15555;SDS011;7879;48.660;9.116;2023-02-21T09:39:58;0.10;;;0.10;;
15555;SDS011;7879;48.660;9.116;2023-02-21T09:42:27;0.10;;;0.10;;
15555;SDS011;7879;48.660;9.116;2023-02-21T09:44:56;0.10;;;0.10;;
15555;SDS011;7879;48.660;9.116;2023-02-21T09:47:28;0.10;;;0.10;;
15555;SDS011;7879;48.660;9.116;2023-02-21T09:49:59;0.10;;;0.10;;
15555;SDS011;7879;48.660;9.116;2023-02-21T09:52:30;0.00;;;0.00;;
15555;SDS011;7879;48.660;9.116;2023-02-21T09:55:01;0.00;;;0.00;;
15555;SDS011;7879;48.660;9.116;2023-02-21T09:57:33;0.00;;;0.00;;
15555;SDS011;7879;48.660;9.116;2023-02-21T10:00:10;0.00;;;0.00;;
15555;SDS011;7879;48.660;9.116;2023-02-21T10:02:51;0.00;;;0.00;;
15555;SDS011;7879;48.660;9.116;2023-02-21T10:05:29;0.00;;;0.00;;
15555;SDS011;7879;48.660;9.116;2023-02-21T10:08:01;0.00;;;0.00;;
15555;SDS011;7879;48.660;9.116;2023-02-21T10:10:43;0.00;;;0.00;;
15555;SDS011;7879;48.660;9.116;2023-02-21T10:21:44;0.00;;;0.00;;
15555;SDS011;7879;48.660;9.116;2023-02-21T10:24:20;0.00;;;0.00;;
15555;SDS011;7879;48.660;9.116;2023-02-21T10:27:02;0.00;;;0.00;;
15555;SDS011;7879;48.660;9.116;2023-02-21T10:29:51;0.00;;;0.00;;
15555;SDS011;7879;48.660;9.116;2023-02-21T10:32:23;0.00;;;0.00;;
15555;SDS011;7879;48.660;9.116;2023-02-21T10:34:50;0.00;;;0.00;;
15555;SDS011;7879;48.660;9.116;2023-02-21T10:40:19;0.00;;;0.00;;
15555;SDS011;7879;48.660;9.116;2023-02-21T10:48:12;0.00;;;0.00;;
15555;SDS011;7879;48.660;9.116;2023-02-21T10:58:52;0.00;;;0.00;;
15555;SDS011;7879;48.660;9.116;2023-02-21T11:03:58;0.00;;;0.00;;
15555;SDS011;7879;48.660;9.116;2023-02-21T11:09:00;0.00;;;0.00;;
15555;SDS011;7879;48.660;9.116;2023-02-21T11:11:38;0.00;;;0.00;;
15555;SDS011;7879;48.660;9.116;2023-02-21T11:14:19;0.00;;;0.00;;
15555;SDS011;7879;48.660;9.116;2023-02-21T11:17:03;0.00;;;0.00;;
15555;SDS011;7879;48.660;9.116;2023-02-21T11:19:40;0.00;;;0.00;;
15555;SDS011;7879;48.660;9.116;2023-02-21T11:22:13;0.00;;;0.00;;
15555;SDS011;7879;48.660;9.116;2023-02-21T11:27:15;0.00;;;0.00;;
15555;SDS011;7879;48.660;9.116;2023-02-21T11:29:43;0.00;;;0.00;;
15555;SDS011;7879;48.660;9.116;2023-02-21T11:34:59;0.00;;;0.00;;
15555;SDS011;7879;48.660;9.116;2023-02-21T11:37:32;0.00;;;0.00;;
15555;SDS011;7879;48.660;9.116;2023-02-21T11:40:02;0.00;;;0.00;;
15555;SDS011;7879;48.660;9.116;2023-02-21T11:42:32;0.00;;;0.00;;
15555;SDS011;7879;48.660;9.116;2023-02-21T11:45:09;0.00;;;0.00;;
15555;SDS011;7879;48.660;9.116;2023-02-21T11:47:40;0.00;;;0.00;;
15555;SDS011;7879;48.660;9.116;2023-02-21T11:50:27;0.00;;;0.00;;
15555;SDS011;7879;48.660;9.116;2023-02-21T11:55:48;0.00;;;0.00;;
15555;SDS011;7879;48.660;9.116;2023-02-21T11:58:26;0.00;;;0.00;;
15555;SDS011;7879;48.660;9.116;2023-02-21T12:00:56;0.00;;;0.00;;
15555;SDS011;7879;48.660;9.116;2023-02-21T12:26:36;0.00;;;0.00;;
15555;SDS011;7879;48.660;9.116;2023-02-21T12:32:15;0.00;;;0.00;;
15555;SDS011;7879;48.660;9.116;2023-02-21T12:35:12;0.00;;;0.00;;
15555;SDS011;7879;48.660;9.116;2023-02-21T12:38:07;0.00;;;0.00;;
15555;SDS011;7879;48.660;9.116;2023-02-21T12:43:55;0.00;;;0.00;;
15555;SDS011;7879;48.660;9.116;2023-02-21T12:55:30;0.05;;;0.05;;
15555;SDS011;7879;48.660;9.116;2023-02-21T12:58:27;0.10;;;0.10;;
15555;SDS011;7879;48.660;9.116;2023-02-21T13:01:01;0.10;;;0.10;;
15555;SDS011;7879;48.660;9.116;2023-02-21T13:06:34;0.10;;;0.10;;
15555;SDS011;7879;48.660;9.116;2023-02-21T13:09:12;0.10;;;0.10;;
15555;SDS011;7879;48.660;9.116;2023-02-21T13:12:22;0.10;;;0.10;;
15555;SDS011;7879;48.660;9.116;2023-02-21T13:14:53;0.10;;;0.10;;
15555;SDS011;7879;48.660;9.116;2023-02-21T13:17:24;0.10;;;0.10;;
15555;SDS011;7879;48.660;9.116;2023-02-21T13:28:21;0.10;;;0.10;;
15555;SDS011;7879;48.660;9.116;2023-02-21T13:30:51;0.10;;;0.10;;
15555;SDS011;7879;48.660;9.116;2023-02-21T13:33:24;0.10;;;0.10;;
15555;SDS011;7879;48.660;9.116;2023-02-21T13:36:30;0.10;;;0.10;;
15555;SDS011;7879;48.660;9.116;2023-02-21T13:41:44;0.10;;;0.10;;
15555;SDS011;7879;48.660;9.116;2023-02-21T13:44:29;0.10;;;0.10;;
15555;SDS011;7879;48.660;9.116;2023-02-21T13:49:42;0.10;;;0.10;;
15555;SDS011;7879;48.660;9.116;2023-02-21T13:52:29;0.10;;;0.10;;
15555;SDS011;7879;48.660;9.116;2023-02-21T13:55:09;0.10;;;0.10;;
15555;SDS011;7879;48.660;9.116;2023-02-21T13:57:37;0.10;;;0.10;;
15555;SDS011;7879;48.660;9.116;2023-02-21T14:08:13;0.10;;;0.10;;
15555;SDS011;7879;48.660;9.116;2023-02-21T14:10:48;0.10;;;0.10;;
15555;SDS011;7879;48.660;9.116;2023-02-21T14:13:44;0.10;;;0.10;;
15555;SDS011;7879;48.660;9.116;2023-02-21T14:16:31;0.10;;;0.10;;
15555;SDS011;7879;48.660;9.116;2023-02-21T14:19:06;0.10;;;0.10;;
15555;SDS011;7879;48.660;9.116;2023-02-21T14:21:39;0.10;;;0.10;;
15555;SDS011;7879;48.660;9.116;2023-02-21T14:31:55;0.10;;;0.10;;
15555;SDS011;7879;48.660;9.116;2023-02-21T15:08:16;0.10;;;0.10;;
15555;SDS011;7879;48.660;9.116;2023-02-21T15:10:45;0.10;;;0.10;;
15555;SDS011;7879;48.660;9.116;2023-02-21T15:18:29;0.10;;;0.10;;
15555;SDS011;7879;48.660;9.116;2023-02-21T15:23:37;0.10;;;0.10;;
15555;SDS011;7879;48.660;9.116;2023-02-21T15:31:45;0.10;;;0.10;;
15555;SDS011;7879;48.660;9.116;2023-02-21T15:39:34;0.10;;;0.10;;
15555;SDS011;7879;48.660;9.116;2023-02-21T15:42:04;0.10;;;0.10;;
15555;SDS011;7879;48.660;9.116;2023-02-21T15:44:38;0.10;;;0.10;;
15555;SDS011;7879;48.660;9.116;2023-02-21T15:47:15;0.10;;;0.10;;
15555;SDS011;7879;48.660;9.116;2023-02-21T15:52:42;0.10;;;0.10;;
15555;SDS011;7879;48.660;9.116;2023-02-21T16:08:37;0.10;;;0.10;;
15555;SDS011;7879;48.660;9.116;2023-02-21T16:11:15;0.00;;;0.00;;
15555;SDS011;7879;48.660;9.116;2023-02-21T16:13:42;0.10;;;0.10;;
15555;SDS011;7879;48.660;9.116;2023-02-21T16:16:09;0.10;;;0.10;;
15555;SDS011;7879;48.660;9.116;2023-02-21T16:18:36;0.10;;;0.10;;
15555;SDS011;7879;48.660;9.116;2023-02-21T16:21:05;0.10;;;0.10;;
15555;SDS011;7879;48.660;9.116;2023-02-21T16:23:34;0.10;;;0.10;;
15555;SDS011;7879;48.660;9.116;2023-02-21T16:28:35;0.10;;;0.10;;
15555;SDS011;7879;48.660;9.116;2023-02-21T16:31:03;0.10;;;0.10;;
15555;SDS011;7879;48.660;9.116;2023-02-21T16:33:32;0.10;;;0.10;;
15555;SDS011;7879;48.660;9.116;2023-02-21T16:36:04;0.10;;;0.10;;
15555;SDS011;7879;48.660;9.116;2023-02-21T16:38:33;0.10;;;0.10;;
15555;SDS011;7879;48.660;9.116;2023-02-21T16:41:00;0.10;;;0.10;;
15555;SDS011;7879;48.660;9.116;2023-02-21T16:43:29;0.10;;;0.10;;
15555;SDS011;7879;48.660;9.116;2023-02-21T16:45:56;0.10;;;0.10;;
15555;SDS011;7879;48.660;9.116;2023-02-21T16:48:24;0.10;;;0.10;;
15555;SDS011;7879;48.660;9.116;2023-02-21T16:50:58;0.10;;;0.10;;
15555;SDS011;7879;48.660;9.116;2023-02-21T16:53:30;0.10;;;0.10;;
15555;SDS011;7879;48.660;9.116;2023-02-21T16:55:57;0.10;;;0.10;;
15555;SDS011;7879;48.660;9.116;2023-02-21T17:01:25;0.10;;;0.10;;
15555;SDS011;7879;48.660;9.116;2023-02-21T17:03:52;0.15;;;0.15;;
15555;SDS011;7879;48.660;9.116;2023-02-21T17:06:20;0.20;;;0.20;;
15555;SDS011;7879;48.660;9.116;2023-02-21T17:08:50;0.10;;;0.10;;
15555;SDS011;7879;48.660;9.116;2023-02-21T17:11:17;0.10;;;0.10;;
15555;SDS011;7879;48.660;9.116;2023-02-21T17:13:44;0.10;;;0.10;;
15555;SDS011;7879;48.660;9.116;2023-02-21T17:16:12;0.20;;;0.20;;
15555;SDS011;7879;48.660;9.116;2023-02-21T17:18:39;0.20;;;0.20;;
15555;SDS011;7879;48.660;9.116;2023-02-21T17:21:06;0.10;;;0.10;;
15555;SDS011;7879;48.660;9.116;2023-02-21T17:23:33;0.10;;;0.10;;
15555;SDS011;7879;48.660;9.116;2023-02-21T17:25:59;0.20;;;0.20;;
15555;SDS011;7879;48.660;9.116;2023-02-21T17:28:26;0.10;;;0.10;;
15555;SDS011;7879;48.660;9.116;2023-02-21T17:30:53;0.10;;;0.10;;
15555;SDS011;7879;48.660;9.116;2023-02-21T17:33:20;0.20;;;0.20;;
15555;SDS011;7879;48.660;9.116;2023-02-21T17:35:47;0.20;;;0.20;;
15555;SDS011;7879;48.660;9.116;2023-02-21T17:38:15;0.10;;;0.10;;
15555;SDS011;7879;48.660;9.116;2023-02-21T17:40:41;0.20;;;0.20;;
15555;SDS011;7879;48.660;9.116;2023-02-21T17:43:13;0.20;;;0.20;;
15555;SDS011;7879;48.660;9.116;2023-02-21T17:45:40;0.10;;;0.10;;
15555;SDS011;7879;48.660;9.116;2023-02-21T17:48:07;0.20;;;0.20;;
15555;SDS011;7879;48.660;9.116;2023-02-21T17:50:34;0.20;;;0.20;;
15555;SDS011;7879;48.660;9.116;2023-02-21T17:53:01;0.10;;;0.10;;
15555;SDS011;7879;48.660;9.116;2023-02-21T17:55:27;0.22;;;0.22;;
15555;SDS011;7879;48.660;9.116;2023-02-21T17:57:55;0.15;;;0.15;;
15555;SDS011;7879;48.660;9.116;2023-02-21T18:00:26;0.20;;;0.20;;
15555;SDS011;7879;48.660;9.116;2023-02-21T18:02:54;0.10;;;0.10;;
15555;SDS011;7879;48.660;9.116;2023-02-21T18:05:22;0.20;;;0.20;;
15555;SDS011;7879;48.660;9.116;2023-02-21T18:07:49;0.20;;;0.20;;
15555;SDS011;7879;48.660;9.116;2023-02-21T18:10:18;0.20;;;0.20;;
15555;SDS011;7879;48.660;9.116;2023-02-21T18:12:47;0.30;;;0.30;;
15555;SDS011;7879;48.660;9.116;2023-02-21T18:15:18;0.20;;;0.20;;
15555;SDS011;7879;48.660;9.116;2023-02-21T18:17:46;0.20;;;0.20;;
15555;SDS011;7879;48.660;9.116;2023-02-21T18:20:14;0.20;;;0.20;;
15555;SDS011;7879;48.660;9.116;2023-02-21T18:22:42;0.30;;;0.30;;
15555;SDS011;7879;48.660;9.116;2023-02-21T18:25:09;0.20;;;0.20;;
15555;SDS011;7879;48.660;9.116;2023-02-21T18:27:36;0.20;;;0.20;;
15555;SDS011;7879;48.660;9.116;2023-02-21T18:30:03;0.20;;;0.20;;
15555;SDS011;7879;48.660;9.116;2023-02-21T18:32:31;0.20;;;0.20;;
15555;SDS011;7879;48.660;9.116;2023-02-21T18:34:58;0.20;;;0.20;;
15555;SDS011;7879;48.660;9.116;2023-02-21T18:37:26;0.20;;;0.20;;
15555;SDS011;7879;48.660;9.116;2023-02-21T18:39:54;0.30;;;0.30;;
15555;SDS011;7879;48.660;9.116;2023-02-21T18:42:22;0.20;;;0.20;;
15555;SDS011;7879;48.660;9.116;2023-02-21T18:44:49;0.20;;;0.20;;
15555;SDS011;7879;48.660;9.116;2023-02-21T18:47:18;0.30;;;0.30;;
15555;SDS011;7879;48.660;9.116;2023-02-21T18:50:03;0.20;;;0.20;;
15555;SDS011;7879;48.660;9.116;2023-02-21T18:52:36;0.30;;;0.30;;
15555;SDS011;7879;48.660;9.116;2023-02-21T18:55:03;0.20;;;0.20;;
15555;SDS011;7879;48.660;9.116;2023-02-21T18:57:31;0.20;;;0.20;;
15555;SDS011;7879;48.660;9.116;2023-02-21T18:59:59;0.22;;;0.22;;
15555;SDS011;7879;48.660;9.116;2023-02-21T19:02:26;0.20;;;0.20;;
15555;SDS011;7879;48.660;9.116;2023-02-21T19:04:53;0.20;;;0.20;;
15555;SDS011;7879;48.660;9.116;2023-02-21T19:07:20;0.30;;;0.30;;
15555;SDS011;7879;48.660;9.116;2023-02-21T19:09:47;0.20;;;0.20;;
15555;SDS011;7879;48.660;9.116;2023-02-21T19:12:17;0.20;;;0.20;;
15555;SDS011;7879;48.660;9.116;2023-02-21T19:14:44;0.20;;;0.20;;